sensor_id;sensor_type;location;lat;lon;timestamp;temperature;humidity
49379;DHT22;35254;47.990;-1.608;2023-06-10T00:01:24;25.90;62.70
49379;DHT22;35254;47.990;-1.608;2023-06-10T00:03:50;25.90;62.10
49379;DHT22;35254;47.990;-1.608;2023-06-10T00:06:17;25.90;62.10
49379;DHT22;35254;47.990;-1.608;2023-06-10T00:08:43;25.90;62.50
49379;DHT22;35254;47.990;-1.608;2023-06-10T00:11:09;25.90;62.50
49379;DHT22;35254;47.990;-1.608;2023-06-10T00:13:35;25.90;62.40
49379;DHT22;35254;47.990;-1.608;2023-06-10T00:16:02;26.00;62.60
49379;DHT22;35254;47.990;-1.608;2023-06-10T00:18:28;25.90;61.70
49379;DHT22;35254;47.990;-1.608;2023-06-10T00:20:56;25.90;62.10
49379;DHT22;35254;47.990;-1.608;2023-06-10T00:23:22;25.90;61.50
49379;DHT22;35254;47.990;-1.608;2023-06-10T00:25:50;25.90;61.70
49379;DHT22;35254;47.990;-1.608;2023-06-10T00:28:16;25.90;61.40
49379;DHT22;35254;47.990;-1.608;2023-06-10T00:30:41;25.90;61.50
49379;DHT22;35254;47.990;-1.608;2023-06-10T00:33:07;25.90;61.40
49379;DHT22;35254;47.990;-1.608;2023-06-10T00:35:32;25.90;61.20
49379;DHT22;35254;47.990;-1.608;2023-06-10T00:37:58;25.90;61.80
49379;DHT22;35254;47.990;-1.608;2023-06-10T00:40:23;25.90;61.60
49379;DHT22;35254;47.990;-1.608;2023-06-10T00:42:49;25.90;61.50
49379;DHT22;35254;47.990;-1.608;2023-06-10T00:45:15;25.90;61.40
49379;DHT22;35254;47.990;-1.608;2023-06-10T00:47:40;25.90;61.20
49379;DHT22;35254;47.990;-1.608;2023-06-10T00:50:06;25.90;61.10
49379;DHT22;35254;47.990;-1.608;2023-06-10T00:52:33;25.80;61.40
49379;DHT22;35254;47.990;-1.608;2023-06-10T00:55:00;25.90;61.00
49379;DHT22;35254;47.990;-1.608;2023-06-10T00:57:26;25.80;61.00
49379;DHT22;35254;47.990;-1.608;2023-06-10T00:59:52;25.80;61.10
49379;DHT22;35254;47.990;-1.608;2023-06-10T01:02:17;25.90;60.90
49379;DHT22;35254;47.990;-1.608;2023-06-10T01:04:43;25.90;60.90
49379;DHT22;35254;47.990;-1.608;2023-06-10T01:14:48;25.90;60.70
49379;DHT22;35254;47.990;-1.608;2023-06-10T01:17:14;25.90;60.90
49379;DHT22;35254;47.990;-1.608;2023-06-10T01:19:42;25.90;60.70
49379;DHT22;35254;47.990;-1.608;2023-06-10T01:22:09;25.90;60.60
49379;DHT22;35254;47.990;-1.608;2023-06-10T01:24:36;25.90;60.60
49379;DHT22;35254;47.990;-1.608;2023-06-10T01:27:06;25.90;60.60
49379;DHT22;35254;47.990;-1.608;2023-06-10T01:29:41;25.90;60.60
49379;DHT22;35254;47.990;-1.608;2023-06-10T01:32:21;25.90;60.80
49379;DHT22;35254;47.990;-1.608;2023-06-10T01:34:49;25.80;60.80
49379;DHT22;35254;47.990;-1.608;2023-06-10T01:37:18;25.90;60.50
49379;DHT22;35254;47.990;-1.608;2023-06-10T01:39:46;25.90;60.50
49379;DHT22;35254;47.990;-1.608;2023-06-10T01:42:12;25.90;60.50
49379;DHT22;35254;47.990;-1.608;2023-06-10T01:44:39;25.90;60.80
49379;DHT22;35254;47.990;-1.608;2023-06-10T01:47:05;25.90;60.60
49379;DHT22;35254;47.990;-1.608;2023-06-10T01:49:31;25.90;60.50
49379;DHT22;35254;47.990;-1.608;2023-06-10T01:51:56;25.90;60.60
49379;DHT22;35254;47.990;-1.608;2023-06-10T01:54:22;25.90;60.50
49379;DHT22;35254;47.990;-1.608;2023-06-10T01:56:47;25.90;60.70
49379;DHT22;35254;47.990;-1.608;2023-06-10T01:59:13;25.90;60.50
49379;DHT22;35254;47.990;-1.608;2023-06-10T02:01:39;25.90;60.60
49379;DHT22;35254;47.990;-1.608;2023-06-10T02:04:04;25.90;60.60
49379;DHT22;35254;47.990;-1.608;2023-06-10T02:06:30;25.90;60.60
49379;DHT22;35254;47.990;-1.608;2023-06-10T02:08:56;25.90;60.50
49379;DHT22;35254;47.990;-1.608;2023-06-10T02:11:21;25.90;60.40
49379;DHT22;35254;47.990;-1.608;2023-06-10T02:13:47;25.90;60.40
49379;DHT22;35254;47.990;-1.608;2023-06-10T02:16:13;25.90;60.50
49379;DHT22;35254;47.990;-1.608;2023-06-10T02:18:40;25.90;60.30
49379;DHT22;35254;47.990;-1.608;2023-06-10T02:21:08;25.90;60.40
49379;DHT22;35254;47.990;-1.608;2023-06-10T02:23:34;25.90;60.40
49379;DHT22;35254;47.990;-1.608;2023-06-10T02:26:00;25.90;60.40
49379;DHT22;35254;47.990;-1.608;2023-06-10T02:28:26;25.90;60.40
49379;DHT22;35254;47.990;-1.608;2023-06-10T02:30:51;25.90;60.40
49379;DHT22;35254;47.990;-1.608;2023-06-10T02:33:17;25.90;60.30
49379;DHT22;35254;47.990;-1.608;2023-06-10T02:35:43;25.90;60.40
49379;DHT22;35254;47.990;-1.608;2023-06-10T02:38:09;25.90;60.20
49379;DHT22;35254;47.990;-1.608;2023-06-10T02:40:35;25.90;60.20
49379;DHT22;35254;47.990;-1.608;2023-06-10T02:43:00;25.80;60.30
49379;DHT22;35254;47.990;-1.608;2023-06-10T02:45:26;25.90;60.10
49379;DHT22;35254;47.990;-1.608;2023-06-10T02:47:51;25.80;60.20
49379;DHT22;35254;47.990;-1.608;2023-06-10T02:50:17;25.90;60.10
49379;DHT22;35254;47.990;-1.608;2023-06-10T02:52:43;25.90;60.10
49379;DHT22;35254;47.990;-1.608;2023-06-10T02:55:09;25.80;60.00
49379;DHT22;35254;47.990;-1.608;2023-06-10T02:57:35;25.80;60.30
49379;DHT22;35254;47.990;-1.608;2023-06-10T03:00:00;25.90;60.00
49379;DHT22;35254;47.990;-1.608;2023-06-10T03:02:26;25.80;60.20
49379;DHT22;35254;47.990;-1.608;2023-06-10T03:04:55;25.80;60.10
49379;DHT22;35254;47.990;-1.608;2023-06-10T03:07:21;25.80;60.20
49379;DHT22;35254;47.990;-1.608;2023-06-10T03:09:46;25.80;60.00
49379;DHT22;35254;47.990;-1.608;2023-06-10T03:12:12;25.80;59.90
49379;DHT22;35254;47.990;-1.608;2023-06-10T03:14:38;25.90;60.00
49379;DHT22;35254;47.990;-1.608;2023-06-10T03:17:04;25.80;60.10
49379;DHT22;35254;47.990;-1.608;2023-06-10T03:19:30;25.80;59.80
49379;DHT22;35254;47.990;-1.608;2023-06-10T03:22:15;25.90;60.00
49379;DHT22;35254;47.990;-1.608;2023-06-10T03:24:42;25.80;59.90
49379;DHT22;35254;47.990;-1.608;2023-06-10T03:27:12;25.80;59.90
49379;DHT22;35254;47.990;-1.608;2023-06-10T03:29:39;25.80;60.00
49379;DHT22;35254;47.990;-1.608;2023-06-10T03:32:04;25.80;60.10
49379;DHT22;35254;47.990;-1.608;2023-06-10T03:34:30;25.80;60.00
49379;DHT22;35254;47.990;-1.608;2023-06-10T03:36:56;25.80;60.00
49379;DHT22;35254;47.990;-1.608;2023-06-10T03:39:23;25.80;59.90
49379;DHT22;35254;47.990;-1.608;2023-06-10T03:41:49;25.80;59.80
49379;DHT22;35254;47.990;-1.608;2023-06-10T03:44:15;25.80;59.90
49379;DHT22;35254;47.990;-1.608;2023-06-10T03:46:41;25.80;60.00
49379;DHT22;35254;47.990;-1.608;2023-06-10T03:49:07;25.80;59.90
49379;DHT22;35254;47.990;-1.608;2023-06-10T03:51:33;25.80;60.00
49379;DHT22;35254;47.990;-1.608;2023-06-10T03:53:58;25.80;59.90
49379;DHT22;35254;47.990;-1.608;2023-06-10T03:56:24;25.80;59.80
49379;DHT22;35254;47.990;-1.608;2023-06-10T03:58:51;25.80;60.00
49379;DHT22;35254;47.990;-1.608;2023-06-10T04:01:16;25.80;59.90
49379;DHT22;35254;47.990;-1.608;2023-06-10T04:03:43;25.80;59.90
49379;DHT22;35254;47.990;-1.608;2023-06-10T04:06:09;25.80;59.70
49379;DHT22;35254;47.990;-1.608;2023-06-10T04:08:35;25.80;59.80
49379;DHT22;35254;47.990;-1.608;2023-06-10T04:11:01;25.80;59.80
49379;DHT22;35254;47.990;-1.608;2023-06-10T04:13:27;25.80;59.80
49379;DHT22;35254;47.990;-1.608;2023-06-10T04:15:53;25.80;59.80
49379;DHT22;35254;47.990;-1.608;2023-06-10T04:18:20;25.80;59.60
49379;DHT22;35254;47.990;-1.608;2023-06-10T04:20:47;25.80;59.70
49379;DHT22;35254;47.990;-1.608;2023-06-10T04:23:12;25.80;59.80
49379;DHT22;35254;47.990;-1.608;2023-06-10T04:25:38;25.80;59.60
49379;DHT22;35254;47.990;-1.608;2023-06-10T04:28:04;25.80;59.80
49379;DHT22;35254;47.990;-1.608;2023-06-10T04:30:29;25.80;59.60
49379;DHT22;35254;47.990;-1.608;2023-06-10T04:32:56;25.80;59.70
49379;DHT22;35254;47.990;-1.608;2023-06-10T04:35:22;25.80;59.60
49379;DHT22;35254;47.990;-1.608;2023-06-10T04:37:48;25.80;59.80
49379;DHT22;35254;47.990;-1.608;2023-06-10T04:40:13;25.80;59.60
49379;DHT22;35254;47.990;-1.608;2023-06-10T04:42:41;25.80;59.70
49379;DHT22;35254;47.990;-1.608;2023-06-10T04:45:07;25.80;59.60
49379;DHT22;35254;47.990;-1.608;2023-06-10T04:47:33;25.80;59.60
49379;DHT22;35254;47.990;-1.608;2023-06-10T04:50:03;25.80;59.70
49379;DHT22;35254;47.990;-1.608;2023-06-10T04:52:29;25.80;59.60
49379;DHT22;35254;47.990;-1.608;2023-06-10T04:54:55;25.80;59.70
49379;DHT22;35254;47.990;-1.608;2023-06-10T04:57:21;25.70;59.50
49379;DHT22;35254;47.990;-1.608;2023-06-10T04:59:47;25.70;59.70
49379;DHT22;35254;47.990;-1.608;2023-06-10T05:02:13;25.70;59.60
49379;DHT22;35254;47.990;-1.608;2023-06-10T05:04:39;25.70;59.50
49379;DHT22;35254;47.990;-1.608;2023-06-10T05:07:04;25.70;59.60
49379;DHT22;35254;47.990;-1.608;2023-06-10T05:09:30;25.70;59.60
49379;DHT22;35254;47.990;-1.608;2023-06-10T05:11:56;25.70;59.50
49379;DHT22;35254;47.990;-1.608;2023-06-10T05:14:22;25.80;59.60
49379;DHT22;35254;47.990;-1.608;2023-06-10T05:16:48;25.70;59.60
49379;DHT22;35254;47.990;-1.608;2023-06-10T05:19:14;25.70;59.60
49379;DHT22;35254;47.990;-1.608;2023-06-10T05:21:41;25.70;59.60
49379;DHT22;35254;47.990;-1.608;2023-06-10T05:24:07;25.70;59.50
49379;DHT22;35254;47.990;-1.608;2023-06-10T05:26:33;25.70;59.50
49379;DHT22;35254;47.990;-1.608;2023-06-10T05:29:03;25.70;59.50
49379;DHT22;35254;47.990;-1.608;2023-06-10T05:31:28;25.70;59.60
49379;DHT22;35254;47.990;-1.608;2023-06-10T05:33:54;25.70;59.50
49379;DHT22;35254;47.990;-1.608;2023-06-10T05:36:20;25.70;59.50
49379;DHT22;35254;47.990;-1.608;2023-06-10T05:38:46;25.70;59.50
49379;DHT22;35254;47.990;-1.608;2023-06-10T05:41:12;25.70;59.60
49379;DHT22;35254;47.990;-1.608;2023-06-10T05:43:37;25.70;59.60
49379;DHT22;35254;47.990;-1.608;2023-06-10T05:46:03;25.70;59.50
49379;DHT22;35254;47.990;-1.608;2023-06-10T05:48:29;25.70;59.60
49379;DHT22;35254;47.990;-1.608;2023-06-10T05:50:54;25.70;59.50
49379;DHT22;35254;47.990;-1.608;2023-06-10T05:53:20;25.70;59.50
49379;DHT22;35254;47.990;-1.608;2023-06-10T05:55:46;25.70;59.50
49379;DHT22;35254;47.990;-1.608;2023-06-10T05:58:13;25.70;59.60
49379;DHT22;35254;47.990;-1.608;2023-06-10T06:00:39;25.70;59.50
49379;DHT22;35254;47.990;-1.608;2023-06-10T06:03:08;25.70;59.60
49379;DHT22;35254;47.990;-1.608;2023-06-10T06:05:35;25.70;59.50
49379;DHT22;35254;47.990;-1.608;2023-06-10T06:08:03;25.70;59.50
49379;DHT22;35254;47.990;-1.608;2023-06-10T06:10:29;25.70;59.50
49379;DHT22;35254;47.990;-1.608;2023-06-10T06:12:55;25.60;59.60
49379;DHT22;35254;47.990;-1.608;2023-06-10T06:15:20;25.60;59.70
49379;DHT22;35254;47.990;-1.608;2023-06-10T06:17:46;25.70;59.60
49379;DHT22;35254;47.990;-1.608;2023-06-10T06:20:12;25.70;59.70
49379;DHT22;35254;47.990;-1.608;2023-06-10T06:22:37;25.70;59.60
49379;DHT22;35254;47.990;-1.608;2023-06-10T06:25:03;25.70;59.70
49379;DHT22;35254;47.990;-1.608;2023-06-10T06:27:29;25.60;59.50
49379;DHT22;35254;47.990;-1.608;2023-06-10T06:29:54;25.60;59.60
49379;DHT22;35254;47.990;-1.608;2023-06-10T06:32:20;25.60;59.70
49379;DHT22;35254;47.990;-1.608;2023-06-10T06:34:47;25.60;59.60
49379;DHT22;35254;47.990;-1.608;2023-06-10T06:37:14;25.60;59.60
49379;DHT22;35254;47.990;-1.608;2023-06-10T06:39:40;25.60;59.60
49379;DHT22;35254;47.990;-1.608;2023-06-10T06:42:06;25.60;59.60
49379;DHT22;35254;47.990;-1.608;2023-06-10T06:44:32;25.60;59.90
49379;DHT22;35254;47.990;-1.608;2023-06-10T06:46:57;25.60;62.70
49379;DHT22;35254;47.990;-1.608;2023-06-10T06:49:23;25.60;60.90
49379;DHT22;35254;47.990;-1.608;2023-06-10T06:51:48;25.70;61.00
49379;DHT22;35254;47.990;-1.608;2023-06-10T06:54:14;25.70;61.00
49379;DHT22;35254;47.990;-1.608;2023-06-10T06:56:40;25.60;60.80
49379;DHT22;35254;47.990;-1.608;2023-06-10T06:59:05;25.70;60.80
49379;DHT22;35254;47.990;-1.608;2023-06-10T07:01:33;25.60;61.10
49379;DHT22;35254;47.990;-1.608;2023-06-10T07:03:59;25.60;61.30
49379;DHT22;35254;47.990;-1.608;2023-06-10T07:06:25;25.60;60.80
49379;DHT22;35254;47.990;-1.608;2023-06-10T07:08:51;25.60;60.40
49379;DHT22;35254;47.990;-1.608;2023-06-10T07:11:16;25.60;60.90
49379;DHT22;35254;47.990;-1.608;2023-06-10T07:13:43;25.60;60.80
49379;DHT22;35254;47.990;-1.608;2023-06-10T07:16:08;25.70;60.90
49379;DHT22;35254;47.990;-1.608;2023-06-10T07:18:34;25.70;60.90
49379;DHT22;35254;47.990;-1.608;2023-06-10T07:20:59;25.60;60.80
49379;DHT22;35254;47.990;-1.608;2023-06-10T07:23:25;25.60;61.20
49379;DHT22;35254;47.990;-1.608;2023-06-10T07:25:51;25.60;60.90
49379;DHT22;35254;47.990;-1.608;2023-06-10T07:28:16;25.60;61.00
49379;DHT22;35254;47.990;-1.608;2023-06-10T07:30:42;25.60;61.60
49379;DHT22;35254;47.990;-1.608;2023-06-10T07:33:08;25.60;61.10
49379;DHT22;35254;47.990;-1.608;2023-06-10T07:35:35;25.60;61.40
49379;DHT22;35254;47.990;-1.608;2023-06-10T07:38:01;25.60;61.10
49379;DHT22;35254;47.990;-1.608;2023-06-10T07:40:27;25.60;61.60
49379;DHT22;35254;47.990;-1.608;2023-06-10T07:42:52;25.60;61.10
49379;DHT22;35254;47.990;-1.608;2023-06-10T07:45:18;25.60;61.30
49379;DHT22;35254;47.990;-1.608;2023-06-10T07:47:44;25.60;61.20
49379;DHT22;35254;47.990;-1.608;2023-06-10T07:50:10;25.60;61.80
49379;DHT22;35254;47.990;-1.608;2023-06-10T07:52:36;25.60;61.50
49379;DHT22;35254;47.990;-1.608;2023-06-10T07:55:02;25.60;61.50
49379;DHT22;35254;47.990;-1.608;2023-06-10T07:57:28;25.60;61.50
49379;DHT22;35254;47.990;-1.608;2023-06-10T07:59:53;25.60;61.60
49379;DHT22;35254;47.990;-1.608;2023-06-10T08:02:20;25.60;61.40
49379;DHT22;35254;47.990;-1.608;2023-06-10T08:04:46;25.60;62.30
49379;DHT22;35254;47.990;-1.608;2023-06-10T08:07:13;25.60;61.60
49379;DHT22;35254;47.990;-1.608;2023-06-10T08:09:38;25.60;62.30
49379;DHT22;35254;47.990;-1.608;2023-06-10T08:12:07;25.60;62.00
49379;DHT22;35254;47.990;-1.608;2023-06-10T08:14:32;25.60;62.50
49379;DHT22;35254;47.990;-1.608;2023-06-10T08:16:59;25.60;62.10
49379;DHT22;35254;47.990;-1.608;2023-06-10T08:19:24;25.60;62.10
49379;DHT22;35254;47.990;-1.608;2023-06-10T08:21:50;25.60;62.00
49379;DHT22;35254;47.990;-1.608;2023-06-10T08:24:16;25.60;62.00
49379;DHT22;35254;47.990;-1.608;2023-06-10T08:26:43;25.70;62.10
49379;DHT22;35254;47.990;-1.608;2023-06-10T08:29:08;25.60;62.80
49379;DHT22;35254;47.990;-1.608;2023-06-10T08:31:42;25.70;62.30
49379;DHT22;35254;47.990;-1.608;2023-06-10T08:34:09;25.70;62.10
49379;DHT22;35254;47.990;-1.608;2023-06-10T08:36:34;25.70;62.00
49379;DHT22;35254;47.990;-1.608;2023-06-10T08:39:01;25.70;62.20
49379;DHT22;35254;47.990;-1.608;2023-06-10T08:41:29;25.70;61.90
49379;DHT22;35254;47.990;-1.608;2023-06-10T08:44:19;25.70;61.90
49379;DHT22;35254;47.990;-1.608;2023-06-10T08:46:47;25.70;62.30
49379;DHT22;35254;47.990;-1.608;2023-06-10T08:49:18;25.70;62.60
49379;DHT22;35254;47.990;-1.608;2023-06-10T08:51:45;25.70;62.20
49379;DHT22;35254;47.990;-1.608;2023-06-10T08:54:17;25.70;62.50
49379;DHT22;35254;47.990;-1.608;2023-06-10T08:56:45;25.70;62.40
49379;DHT22;35254;47.990;-1.608;2023-06-10T08:59:13;25.70;62.00
49379;DHT22;35254;47.990;-1.608;2023-06-10T09:01:42;25.70;62.40
49379;DHT22;35254;47.990;-1.608;2023-06-10T09:04:07;25.70;62.40
49379;DHT22;35254;47.990;-1.608;2023-06-10T09:06:33;25.70;62.00
49379;DHT22;35254;47.990;-1.608;2023-06-10T09:08:59;25.70;61.80
49379;DHT22;35254;47.990;-1.608;2023-06-10T09:11:25;25.70;62.60
49379;DHT22;35254;47.990;-1.608;2023-06-10T09:13:52;25.70;62.10
49379;DHT22;35254;47.990;-1.608;2023-06-10T09:16:17;25.70;62.50
49379;DHT22;35254;47.990;-1.608;2023-06-10T09:18:43;25.70;61.90
49379;DHT22;35254;47.990;-1.608;2023-06-10T09:21:09;25.70;61.80
49379;DHT22;35254;47.990;-1.608;2023-06-10T09:23:36;25.70;62.10
49379;DHT22;35254;47.990;-1.608;2023-06-10T09:26:02;25.70;62.60
49379;DHT22;35254;47.990;-1.608;2023-06-10T09:28:30;25.70;61.90
49379;DHT22;35254;47.990;-1.608;2023-06-10T09:31:06;25.70;62.50
49379;DHT22;35254;47.990;-1.608;2023-06-10T09:33:33;25.70;62.20
49379;DHT22;35254;47.990;-1.608;2023-06-10T09:36:02;25.70;62.70
49379;DHT22;35254;47.990;-1.608;2023-06-10T09:38:33;25.70;62.00
49379;DHT22;35254;47.990;-1.608;2023-06-10T09:40:59;25.70;62.00
49379;DHT22;35254;47.990;-1.608;2023-06-10T09:43:40;25.70;62.50
49379;DHT22;35254;47.990;-1.608;2023-06-10T09:46:06;25.70;62.30
49379;DHT22;35254;47.990;-1.608;2023-06-10T09:48:41;25.70;62.10
49379;DHT22;35254;47.990;-1.608;2023-06-10T09:51:11;25.70;62.60
49379;DHT22;35254;47.990;-1.608;2023-06-10T09:53:37;25.70;63.10
49379;DHT22;35254;47.990;-1.608;2023-06-10T09:56:03;25.70;62.10
49379;DHT22;35254;47.990;-1.608;2023-06-10T09:58:39;25.70;61.90
49379;DHT22;35254;47.990;-1.608;2023-06-10T10:01:11;25.70;62.30
49379;DHT22;35254;47.990;-1.608;2023-06-10T10:03:49;25.70;62.20
49379;DHT22;35254;47.990;-1.608;2023-06-10T10:06:16;25.70;61.90
49379;DHT22;35254;47.990;-1.608;2023-06-10T10:08:43;25.70;62.20
49379;DHT22;35254;47.990;-1.608;2023-06-10T10:11:09;25.70;61.90
49379;DHT22;35254;47.990;-1.608;2023-06-10T10:13:35;25.70;62.50
49379;DHT22;35254;47.990;-1.608;2023-06-10T10:16:06;25.70;62.10
49379;DHT22;35254;47.990;-1.608;2023-06-10T10:18:32;25.70;62.50
49379;DHT22;35254;47.990;-1.608;2023-06-10T10:21:04;25.70;61.90
49379;DHT22;35254;47.990;-1.608;2023-06-10T10:23:45;25.70;62.30
49379;DHT22;35254;47.990;-1.608;2023-06-10T10:26:14;25.70;62.20
49379;DHT22;35254;47.990;-1.608;2023-06-10T10:28:45;25.70;61.90
49379;DHT22;35254;47.990;-1.608;2023-06-10T10:31:16;25.70;61.70
49379;DHT22;35254;47.990;-1.608;2023-06-10T10:34:06;25.70;62.10
49379;DHT22;35254;47.990;-1.608;2023-06-10T10:36:32;25.70;62.00
49379;DHT22;35254;47.990;-1.608;2023-06-10T10:38:58;25.70;62.00
49379;DHT22;35254;47.990;-1.608;2023-06-10T10:41:27;25.70;62.10
49379;DHT22;35254;47.990;-1.608;2023-06-10T10:43:53;25.80;62.40
49379;DHT22;35254;47.990;-1.608;2023-06-10T10:46:19;25.70;61.60
49379;DHT22;35254;47.990;-1.608;2023-06-10T10:48:47;25.70;61.80
49379;DHT22;35254;47.990;-1.608;2023-06-10T10:51:17;25.80;61.60
49379;DHT22;35254;47.990;-1.608;2023-06-10T10:53:42;25.70;61.50
49379;DHT22;35254;47.990;-1.608;2023-06-10T10:56:14;25.80;61.90
49379;DHT22;35254;47.990;-1.608;2023-06-10T10:58:40;25.80;61.50
49379;DHT22;35254;47.990;-1.608;2023-06-10T11:01:12;25.80;61.60
49379;DHT22;35254;47.990;-1.608;2023-06-10T11:03:46;25.80;62.00
49379;DHT22;35254;47.990;-1.608;2023-06-10T11:06:16;25.70;62.50
49379;DHT22;35254;47.990;-1.608;2023-06-10T11:11:27;25.80;61.70
49379;DHT22;35254;47.990;-1.608;2023-06-10T11:16:30;25.80;62.00
49379;DHT22;35254;47.990;-1.608;2023-06-10T11:18:56;25.70;61.90
49379;DHT22;35254;47.990;-1.608;2023-06-10T11:21:24;25.80;62.10
49379;DHT22;35254;47.990;-1.608;2023-06-10T11:23:51;25.80;62.00
49379;DHT22;35254;47.990;-1.608;2023-06-10T11:31:38;25.80;62.00
49379;DHT22;35254;47.990;-1.608;2023-06-10T11:34:05;25.80;62.60
49379;DHT22;35254;47.990;-1.608;2023-06-10T11:36:37;25.80;62.00
49379;DHT22;35254;47.990;-1.608;2023-06-10T11:39:04;25.80;62.20
49379;DHT22;35254;47.990;-1.608;2023-06-10T11:41:34;25.80;62.60
49379;DHT22;35254;47.990;-1.608;2023-06-10T11:44:11;25.80;62.00
49379;DHT22;35254;47.990;-1.608;2023-06-10T11:46:37;25.80;63.40
49379;DHT22;35254;47.990;-1.608;2023-06-10T11:49:04;25.80;62.40
49379;DHT22;35254;47.990;-1.608;2023-06-10T11:51:36;25.80;62.10
49379;DHT22;35254;47.990;-1.608;2023-06-10T11:54:03;25.80;62.10
49379;DHT22;35254;47.990;-1.608;2023-06-10T11:56:30;25.80;62.20
49379;DHT22;35254;47.990;-1.608;2023-06-10T11:58:58;25.80;62.00
49379;DHT22;35254;47.990;-1.608;2023-06-10T12:01:26;25.80;62.10
49379;DHT22;35254;47.990;-1.608;2023-06-10T12:03:58;25.80;62.00
49379;DHT22;35254;47.990;-1.608;2023-06-10T12:06:24;25.80;62.20
49379;DHT22;35254;47.990;-1.608;2023-06-10T12:08:50;25.90;63.40
49379;DHT22;35254;47.990;-1.608;2023-06-10T12:11:16;25.90;62.70
49379;DHT22;35254;47.990;-1.608;2023-06-10T12:13:48;25.90;63.00
49379;DHT22;35254;47.990;-1.608;2023-06-10T12:16:16;25.90;62.80
49379;DHT22;35254;47.990;-1.608;2023-06-10T12:18:43;25.80;62.80
49379;DHT22;35254;47.990;-1.608;2023-06-10T12:24:03;25.90;63.70
49379;DHT22;35254;47.990;-1.608;2023-06-10T12:29:23;25.90;63.80
49379;DHT22;35254;47.990;-1.608;2023-06-10T12:31:59;25.90;63.50
49379;DHT22;35254;47.990;-1.608;2023-06-10T12:34:36;25.90;63.70
49379;DHT22;35254;47.990;-1.608;2023-06-10T12:37:04;25.90;64.50
49379;DHT22;35254;47.990;-1.608;2023-06-10T12:39:33;25.90;63.60
49379;DHT22;35254;47.990;-1.608;2023-06-10T12:42:00;25.90;64.00
49379;DHT22;35254;47.990;-1.608;2023-06-10T12:44:29;25.90;64.80
49379;DHT22;35254;47.990;-1.608;2023-06-10T12:46:55;25.90;64.00
49379;DHT22;35254;47.990;-1.608;2023-06-10T12:49:21;25.80;64.10
49379;DHT22;35254;47.990;-1.608;2023-06-10T12:51:47;25.80;64.00
49379;DHT22;35254;47.990;-1.608;2023-06-10T12:54:13;25.80;64.00
49379;DHT22;35254;47.990;-1.608;2023-06-10T12:56:39;25.80;64.30
49379;DHT22;35254;47.990;-1.608;2023-06-10T12:59:05;25.90;63.80
49379;DHT22;35254;47.990;-1.608;2023-06-10T13:01:31;25.90;64.00
49379;DHT22;35254;47.990;-1.608;2023-06-10T13:03:57;25.80;64.00
49379;DHT22;35254;47.990;-1.608;2023-06-10T13:06:23;25.80;63.90
49379;DHT22;35254;47.990;-1.608;2023-06-10T13:08:48;25.80;64.10
49379;DHT22;35254;47.990;-1.608;2023-06-10T13:11:14;25.90;64.20
49379;DHT22;35254;47.990;-1.608;2023-06-10T13:13:39;25.80;64.20
49379;DHT22;35254;47.990;-1.608;2023-06-10T13:16:05;25.90;64.10
49379;DHT22;35254;47.990;-1.608;2023-06-10T13:18:32;25.80;64.30
49379;DHT22;35254;47.990;-1.608;2023-06-10T13:21:03;25.90;64.10
49379;DHT22;35254;47.990;-1.608;2023-06-10T13:23:29;25.90;64.40
49379;DHT22;35254;47.990;-1.608;2023-06-10T13:25:56;25.90;64.50
49379;DHT22;35254;47.990;-1.608;2023-06-10T13:28:22;25.90;64.50
49379;DHT22;35254;47.990;-1.608;2023-06-10T13:30:48;25.90;64.50
49379;DHT22;35254;47.990;-1.608;2023-06-10T13:33:14;25.90;64.70
49379;DHT22;35254;47.990;-1.608;2023-06-10T13:35:39;26.00;64.80
49379;DHT22;35254;47.990;-1.608;2023-06-10T13:38:06;26.00;64.80
49379;DHT22;35254;47.990;-1.608;2023-06-10T13:40:32;25.90;64.80
49379;DHT22;35254;47.990;-1.608;2023-06-10T13:42:58;26.00;64.90
49379;DHT22;35254;47.990;-1.608;2023-06-10T13:45:24;26.00;64.60
49379;DHT22;35254;47.990;-1.608;2023-06-10T13:47:50;25.90;64.30
49379;DHT22;35254;47.990;-1.608;2023-06-10T13:50:16;26.00;64.50
49379;DHT22;35254;47.990;-1.608;2023-06-10T13:52:41;26.00;64.30
49379;DHT22;35254;47.990;-1.608;2023-06-10T13:55:07;26.00;64.40
49379;DHT22;35254;47.990;-1.608;2023-06-10T13:57:33;26.00;64.80
49379;DHT22;35254;47.990;-1.608;2023-06-10T13:59:59;26.00;64.80
49379;DHT22;35254;47.990;-1.608;2023-06-10T14:02:25;26.00;64.60
49379;DHT22;35254;47.990;-1.608;2023-06-10T14:04:50;26.00;64.70
49379;DHT22;35254;47.990;-1.608;2023-06-10T14:07:16;26.00;64.80
49379;DHT22;35254;47.990;-1.608;2023-06-10T14:09:42;26.00;64.60
49379;DHT22;35254;47.990;-1.608;2023-06-10T14:12:09;26.00;64.70
49379;DHT22;35254;47.990;-1.608;2023-06-10T14:14:35;26.00;65.10
49379;DHT22;35254;47.990;-1.608;2023-06-10T14:17:02;26.10;65.20
49379;DHT22;35254;47.990;-1.608;2023-06-10T14:19:28;26.00;65.10
49379;DHT22;35254;47.990;-1.608;2023-06-10T14:21:54;26.10;65.20
49379;DHT22;35254;47.990;-1.608;2023-06-10T14:24:21;26.00;65.10
49379;DHT22;35254;47.990;-1.608;2023-06-10T14:26:47;26.10;65.30
49379;DHT22;35254;47.990;-1.608;2023-06-10T14:29:13;26.10;65.80
49379;DHT22;35254;47.990;-1.608;2023-06-10T14:31:42;26.10;65.70
49379;DHT22;35254;47.990;-1.608;2023-06-10T14:34:08;26.10;66.30
49379;DHT22;35254;47.990;-1.608;2023-06-10T14:36:34;26.10;66.70
49379;DHT22;35254;47.990;-1.608;2023-06-10T14:39:00;26.10;66.80
49379;DHT22;35254;47.990;-1.608;2023-06-10T14:41:26;26.10;66.60
49379;DHT22;35254;47.990;-1.608;2023-06-10T14:43:52;26.10;66.90
49379;DHT22;35254;47.990;-1.608;2023-06-10T14:46:18;26.10;66.80
49379;DHT22;35254;47.990;-1.608;2023-06-10T14:48:46;26.10;67.10
49379;DHT22;35254;47.990;-1.608;2023-06-10T14:51:12;26.10;67.50
49379;DHT22;35254;47.990;-1.608;2023-06-10T14:53:37;26.10;67.20
49379;DHT22;35254;47.990;-1.608;2023-06-10T14:56:03;26.10;67.20
49379;DHT22;35254;47.990;-1.608;2023-06-10T14:58:29;26.20;67.80
49379;DHT22;35254;47.990;-1.608;2023-06-10T15:00:55;26.20;67.20
49379;DHT22;35254;47.990;-1.608;2023-06-10T15:03:21;26.20;67.10
49379;DHT22;35254;47.990;-1.608;2023-06-10T15:05:46;26.20;67.20
49379;DHT22;35254;47.990;-1.608;2023-06-10T15:08:12;26.20;67.20
49379;DHT22;35254;47.990;-1.608;2023-06-10T15:10:37;26.20;67.40
49379;DHT22;35254;47.990;-1.608;2023-06-10T15:13:03;26.10;67.70
49379;DHT22;35254;47.990;-1.608;2023-06-10T15:15:29;26.10;67.50
49379;DHT22;35254;47.990;-1.608;2023-06-10T15:17:54;26.10;67.40
49379;DHT22;35254;47.990;-1.608;2023-06-10T15:20:21;26.20;66.50
49379;DHT22;35254;47.990;-1.608;2023-06-10T15:22:46;26.20;66.60
49379;DHT22;35254;47.990;-1.608;2023-06-10T15:25:12;26.10;66.30
49379;DHT22;35254;47.990;-1.608;2023-06-10T15:27:38;26.10;66.20
49379;DHT22;35254;47.990;-1.608;2023-06-10T15:30:05;26.20;66.20
49379;DHT22;35254;47.990;-1.608;2023-06-10T15:32:32;26.20;66.10
49379;DHT22;35254;47.990;-1.608;2023-06-10T15:34:58;26.20;66.00
49379;DHT22;35254;47.990;-1.608;2023-06-10T15:37:23;26.20;66.00